Terminal Aerodrome Forecast
Issued by NWS Omaha/Valley, NE

Home | Current Version | Previous Version | Text Only | Print | Product List | Glossary On
Versions: 1 2 3 4 5 6 7 8 9 10 11 12 13 14 15 16 17 18 19 20
000
FTUS43 KOAX 292320
TAFLNK
TAF
KLNK 292320Z 3000/3024 07014G21KT P6SM OVC015
      TEMPO 3004/3006 -RA SCT008
     FM300600 05020G28KT 4SM -RA BR OVC008
     FM301100 05016G24KT 2SM RA BR OVC004
     FM301500 05013KT 4SM BR VCSH OVC004
     FM301900 03012KT 4SM BR OVC008=

USA.gov is the U.S. government's official web portal to all federal, state and local government web resources and services.